sensor_id;sensor_type;location;lat;lon;timestamp;P1;durP1;ratioP1;P2;durP2;ratioP2
61471;SDS011;47337;54.068;12.114;2023-03-01T00:01:28;12.15;;;6.10;;
61471;SDS011;47337;54.068;12.114;2023-03-01T00:03:56;9.07;;;5.60;;
61471;SDS011;47337;54.068;12.114;2023-03-01T00:06:22;9.57;;;5.43;;
61471;SDS011;47337;54.068;12.114;2023-03-01T00:08:49;10.20;;;5.60;;
61471;SDS011;47337;54.068;12.114;2023-03-01T00:11:18;13.48;;;6.30;;
61471;SDS011;47337;54.068;12.114;2023-03-01T00:13:47;11.18;;;6.10;;
61471;SDS011;47337;54.068;12.114;2023-03-01T00:16:15;9.90;;;5.60;;
61471;SDS011;47337;54.068;12.114;2023-03-01T00:18:42;10.40;;;5.43;;
61471;SDS011;47337;54.068;12.114;2023-03-01T00:21:08;9.38;;;5.95;;
61471;SDS011;47337;54.068;12.114;2023-03-01T00:23:34;10.50;;;5.40;;
61471;SDS011;47337;54.068;12.114;2023-03-01T00:26:00;11.40;;;5.32;;
61471;SDS011;47337;54.068;12.114;2023-03-01T00:28:25;9.43;;;5.32;;
61471;SDS011;47337;54.068;12.114;2023-03-01T00:30:51;10.40;;;5.22;;
61471;SDS011;47337;54.068;12.114;2023-03-01T00:33:17;11.57;;;5.32;;
61471;SDS011;47337;54.068;12.114;2023-03-01T00:35:43;12.38;;;5.55;;
61471;SDS011;47337;54.068;12.114;2023-03-01T00:38:08;11.27;;;5.32;;
61471;SDS011;47337;54.068;12.114;2023-03-01T00:40:34;10.00;;;5.05;;
61471;SDS011;47337;54.068;12.114;2023-03-01T00:43:00;7.93;;;5.45;;
61471;SDS011;47337;54.068;12.114;2023-03-01T00:45:27;12.15;;;5.78;;
61471;SDS011;47337;54.068;12.114;2023-03-01T00:47:52;13.15;;;5.82;;
61471;SDS011;47337;54.068;12.114;2023-03-01T00:50:20;9.82;;;5.25;;
61471;SDS011;47337;54.068;12.114;2023-03-01T00:52:46;12.43;;;5.47;;
61471;SDS011;47337;54.068;12.114;2023-03-01T00:55:11;9.02;;;5.20;;
61471;SDS011;47337;54.068;12.114;2023-03-01T00:57:37;10.88;;;6.03;;
61471;SDS011;47337;54.068;12.114;2023-03-01T01:00:06;10.30;;;5.40;;
61471;SDS011;47337;54.068;12.114;2023-03-01T01:02:34;9.10;;;5.22;;
61471;SDS011;47337;54.068;12.114;2023-03-01T01:05:07;10.68;;;5.28;;
61471;SDS011;47337;54.068;12.114;2023-03-01T01:07:38;9.55;;;5.53;;
61471;SDS011;47337;54.068;12.114;2023-03-01T01:10:04;7.95;;;5.13;;
61471;SDS011;47337;54.068;12.114;2023-03-01T01:12:33;9.32;;;5.50;;
61471;SDS011;47337;54.068;12.114;2023-03-01T01:14:58;10.65;;;5.53;;
61471;SDS011;47337;54.068;12.114;2023-03-01T01:17:24;10.65;;;5.68;;
61471;SDS011;47337;54.068;12.114;2023-03-01T01:19:52;11.32;;;4.90;;
61471;SDS011;47337;54.068;12.114;2023-03-01T01:22:17;10.40;;;5.28;;
61471;SDS011;47337;54.068;12.114;2023-03-01T01:24:42;11.52;;;5.38;;
61471;SDS011;47337;54.068;12.114;2023-03-01T01:27:08;7.45;;;4.78;;
61471;SDS011;47337;54.068;12.114;2023-03-01T01:29:33;9.02;;;4.90;;
61471;SDS011;47337;54.068;12.114;2023-03-01T01:31:59;10.10;;;5.25;;
61471;SDS011;47337;54.068;12.114;2023-03-01T01:34:24;11.93;;;5.68;;
61471;SDS011;47337;54.068;12.114;2023-03-01T01:36:50;8.82;;;5.15;;
61471;SDS011;47337;54.068;12.114;2023-03-01T01:39:19;9.98;;;5.53;;
61471;SDS011;47337;54.068;12.114;2023-03-01T01:41:45;11.10;;;5.25;;
61471;SDS011;47337;54.068;12.114;2023-03-01T01:44:15;10.45;;;6.03;;
61471;SDS011;47337;54.068;12.114;2023-03-01T01:57:17;9.55;;;5.45;;
61471;SDS011;47337;54.068;12.114;2023-03-01T01:59:48;10.18;;;5.72;;
61471;SDS011;47337;54.068;12.114;2023-03-01T02:02:21;9.98;;;5.13;;
61471;SDS011;47337;54.068;12.114;2023-03-01T02:04:47;8.35;;;4.80;;
61471;SDS011;47337;54.068;12.114;2023-03-01T02:07:19;11.05;;;5.72;;
61471;SDS011;47337;54.068;12.114;2023-03-01T02:09:48;9.32;;;4.82;;
61471;SDS011;47337;54.068;12.114;2023-03-01T02:12:17;11.77;;;5.60;;
61471;SDS011;47337;54.068;12.114;2023-03-01T02:14:48;9.10;;;4.50;;
61471;SDS011;47337;54.068;12.114;2023-03-01T02:17:15;12.73;;;5.40;;
61471;SDS011;47337;54.068;12.114;2023-03-01T02:19:44;8.98;;;5.03;;
61471;SDS011;47337;54.068;12.114;2023-03-01T02:22:27;10.52;;;5.03;;
61471;SDS011;47337;54.068;12.114;2023-03-01T02:25:10;8.57;;;5.22;;
61471;SDS011;47337;54.068;12.114;2023-03-01T02:30:18;11.93;;;5.28;;
61471;SDS011;47337;54.068;12.114;2023-03-01T02:32:45;8.77;;;5.25;;
61471;SDS011;47337;54.068;12.114;2023-03-01T02:35:12;12.23;;;5.43;;
61471;SDS011;47337;54.068;12.114;2023-03-01T02:37:40;10.30;;;5.40;;
61471;SDS011;47337;54.068;12.114;2023-03-01T02:40:08;10.38;;;5.72;;
61471;SDS011;47337;54.068;12.114;2023-03-01T02:42:43;9.77;;;5.05;;
61471;SDS011;47337;54.068;12.114;2023-03-01T02:45:15;12.45;;;5.53;;
61471;SDS011;47337;54.068;12.114;2023-03-01T02:47:40;8.70;;;5.72;;
61471;SDS011;47337;54.068;12.114;2023-03-01T02:50:22;13.32;;;5.57;;
61471;SDS011;47337;54.068;12.114;2023-03-01T02:55:26;11.10;;;6.00;;
61471;SDS011;47337;54.068;12.114;2023-03-01T02:57:52;11.20;;;5.65;;
61471;SDS011;47337;54.068;12.114;2023-03-01T03:00:24;10.88;;;5.60;;
61471;SDS011;47337;54.068;12.114;2023-03-01T03:02:58;12.57;;;5.85;;
61471;SDS011;47337;54.068;12.114;2023-03-01T03:05:26;10.35;;;5.68;;
61471;SDS011;47337;54.068;12.114;2023-03-01T03:07:55;11.10;;;6.05;;
61471;SDS011;47337;54.068;12.114;2023-03-01T03:10:24;10.50;;;5.68;;
61471;SDS011;47337;54.068;12.114;2023-03-01T03:12:56;9.98;;;5.43;;
61471;SDS011;47337;54.068;12.114;2023-03-01T03:15:28;8.77;;;5.32;;
61471;SDS011;47337;54.068;12.114;2023-03-01T03:17:54;10.63;;;5.90;;
61471;SDS011;47337;54.068;12.114;2023-03-01T03:20:23;11.10;;;6.03;;
61471;SDS011;47337;54.068;12.114;2023-03-01T03:22:53;10.70;;;5.00;;
61471;SDS011;47337;54.068;12.114;2023-03-01T03:25:21;9.68;;;5.30;;
61471;SDS011;47337;54.068;12.114;2023-03-01T03:27:48;8.65;;;5.10;;
61471;SDS011;47337;54.068;12.114;2023-03-01T03:30:16;9.30;;;5.70;;
61471;SDS011;47337;54.068;12.114;2023-03-01T03:32:43;10.43;;;5.72;;
61471;SDS011;47337;54.068;12.114;2023-03-01T03:35:20;9.20;;;4.90;;
61471;SDS011;47337;54.068;12.114;2023-03-01T03:37:50;11.50;;;6.15;;
61471;SDS011;47337;54.068;12.114;2023-03-01T03:43:02;11.10;;;5.47;;
61471;SDS011;47337;54.068;12.114;2023-03-01T03:45:38;10.68;;;5.85;;
61471;SDS011;47337;54.068;12.114;2023-03-01T03:48:07;10.18;;;5.82;;
61471;SDS011;47337;54.068;12.114;2023-03-01T03:50:34;9.93;;;5.40;;
61471;SDS011;47337;54.068;12.114;2023-03-01T03:53:00;13.05;;;5.93;;
61471;SDS011;47337;54.068;12.114;2023-03-01T03:55:27;8.75;;;5.85;;
61471;SDS011;47337;54.068;12.114;2023-03-01T03:57:58;10.30;;;5.20;;
61471;SDS011;47337;54.068;12.114;2023-03-01T04:00:27;10.63;;;5.53;;
61471;SDS011;47337;54.068;12.114;2023-03-01T04:02:53;11.13;;;5.97;;
61471;SDS011;47337;54.068;12.114;2023-03-01T04:05:21;14.32;;;6.85;;
61471;SDS011;47337;54.068;12.114;2023-03-01T04:07:47;10.88;;;5.88;;
61471;SDS011;47337;54.068;12.114;2023-03-01T04:10:14;12.95;;;5.72;;
61471;SDS011;47337;54.068;12.114;2023-03-01T04:12:42;12.07;;;6.32;;
61471;SDS011;47337;54.068;12.114;2023-03-01T04:15:08;9.68;;;5.68;;
61471;SDS011;47337;54.068;12.114;2023-03-01T04:17:41;11.68;;;6.38;;
61471;SDS011;47337;54.068;12.114;2023-03-01T04:20:11;11.30;;;6.60;;
61471;SDS011;47337;54.068;12.114;2023-03-01T04:22:40;12.45;;;6.72;;
61471;SDS011;47337;54.068;12.114;2023-03-01T04:25:08;13.20;;;6.45;;
61471;SDS011;47337;54.068;12.114;2023-03-01T04:27:34;12.95;;;6.85;;
61471;SDS011;47337;54.068;12.114;2023-03-01T04:30:00;11.35;;;6.47;;
61471;SDS011;47337;54.068;12.114;2023-03-01T04:32:27;8.90;;;5.00;;
61471;SDS011;47337;54.068;12.114;2023-03-01T04:34:52;11.70;;;6.43;;
61471;SDS011;47337;54.068;12.114;2023-03-01T04:37:18;12.63;;;5.75;;
61471;SDS011;47337;54.068;12.114;2023-03-01T04:39:45;11.32;;;6.22;;
61471;SDS011;47337;54.068;12.114;2023-03-01T04:42:12;11.32;;;7.00;;
61471;SDS011;47337;54.068;12.114;2023-03-01T04:44:38;12.07;;;5.72;;
61471;SDS011;47337;54.068;12.114;2023-03-01T04:47:04;10.60;;;5.95;;
61471;SDS011;47337;54.068;12.114;2023-03-01T04:49:29;10.45;;;6.30;;
61471;SDS011;47337;54.068;12.114;2023-03-01T04:51:56;11.77;;;6.20;;
61471;SDS011;47337;54.068;12.114;2023-03-01T04:54:24;13.63;;;6.45;;
61471;SDS011;47337;54.068;12.114;2023-03-01T04:56:53;12.85;;;6.70;;
61471;SDS011;47337;54.068;12.114;2023-03-01T04:59:19;12.10;;;6.43;;
61471;SDS011;47337;54.068;12.114;2023-03-01T05:01:50;15.32;;;6.50;;
61471;SDS011;47337;54.068;12.114;2023-03-01T05:04:17;13.63;;;6.78;;
61471;SDS011;47337;54.068;12.114;2023-03-01T05:06:42;14.70;;;7.55;;
61471;SDS011;47337;54.068;12.114;2023-03-01T05:09:10;13.52;;;7.28;;
61471;SDS011;47337;54.068;12.114;2023-03-01T05:11:38;14.10;;;7.32;;
61471;SDS011;47337;54.068;12.114;2023-03-01T05:14:04;12.85;;;7.03;;
61471;SDS011;47337;54.068;12.114;2023-03-01T05:16:31;14.85;;;7.40;;
61471;SDS011;47337;54.068;12.114;2023-03-01T05:18:57;15.43;;;7.70;;
61471;SDS011;47337;54.068;12.114;2023-03-01T05:21:23;13.38;;;7.03;;
61471;SDS011;47337;54.068;12.114;2023-03-01T05:23:50;11.85;;;6.82;;
61471;SDS011;47337;54.068;12.114;2023-03-01T05:26:16;13.45;;;6.82;;
61471;SDS011;47337;54.068;12.114;2023-03-01T05:28:43;12.10;;;7.32;;
61471;SDS011;47337;54.068;12.114;2023-03-01T05:31:09;16.17;;;7.68;;
61471;SDS011;47337;54.068;12.114;2023-03-01T05:33:39;16.98;;;7.55;;
61471;SDS011;47337;54.068;12.114;2023-03-01T05:36:06;13.90;;;7.53;;
61471;SDS011;47337;54.068;12.114;2023-03-01T05:38:35;14.00;;;7.03;;
61471;SDS011;47337;54.068;12.114;2023-03-01T05:41:03;16.13;;;7.80;;
61471;SDS011;47337;54.068;12.114;2023-03-01T05:43:31;12.02;;;6.68;;
61471;SDS011;47337;54.068;12.114;2023-03-01T05:45:59;13.75;;;6.75;;
61471;SDS011;47337;54.068;12.114;2023-03-01T05:48:25;21.02;;;8.38;;
61471;SDS011;47337;54.068;12.114;2023-03-01T05:50:51;15.77;;;7.20;;
61471;SDS011;47337;54.068;12.114;2023-03-01T05:53:17;14.98;;;6.82;;
61471;SDS011;47337;54.068;12.114;2023-03-01T05:55:46;14.38;;;7.68;;
61471;SDS011;47337;54.068;12.114;2023-03-01T05:58:18;12.88;;;7.40;;
61471;SDS011;47337;54.068;12.114;2023-03-01T06:00:45;14.97;;;7.67;;
61471;SDS011;47337;54.068;12.114;2023-03-01T06:03:13;17.63;;;8.07;;
61471;SDS011;47337;54.068;12.114;2023-03-01T06:05:41;20.75;;;8.90;;
61471;SDS011;47337;54.068;12.114;2023-03-01T06:08:06;17.90;;;8.90;;
61471;SDS011;47337;54.068;12.114;2023-03-01T06:10:32;19.48;;;9.23;;
61471;SDS011;47337;54.068;12.114;2023-03-01T06:12:58;17.48;;;8.32;;
61471;SDS011;47337;54.068;12.114;2023-03-01T06:15:23;15.15;;;8.57;;
61471;SDS011;47337;54.068;12.114;2023-03-01T06:17:50;15.00;;;8.10;;
61471;SDS011;47337;54.068;12.114;2023-03-01T06:20:19;14.73;;;7.93;;
61471;SDS011;47337;54.068;12.114;2023-03-01T06:22:47;15.77;;;7.95;;
61471;SDS011;47337;54.068;12.114;2023-03-01T06:25:15;15.65;;;8.13;;
61471;SDS011;47337;54.068;12.114;2023-03-01T06:27:44;14.98;;;8.20;;
61471;SDS011;47337;54.068;12.114;2023-03-01T06:30:14;18.23;;;8.98;;
61471;SDS011;47337;54.068;12.114;2023-03-01T06:32:42;23.08;;;9.02;;
61471;SDS011;47337;54.068;12.114;2023-03-01T06:35:07;23.30;;;8.65;;
61471;SDS011;47337;54.068;12.114;2023-03-01T06:37:35;19.33;;;8.02;;
61471;SDS011;47337;54.068;12.114;2023-03-01T06:40:01;17.08;;;8.68;;
61471;SDS011;47337;54.068;12.114;2023-03-01T06:42:33;16.30;;;9.02;;
61471;SDS011;47337;54.068;12.114;2023-03-01T06:45:01;19.38;;;8.80;;
61471;SDS011;47337;54.068;12.114;2023-03-01T06:47:27;22.73;;;9.65;;
61471;SDS011;47337;54.068;12.114;2023-03-01T06:49:56;20.02;;;9.43;;
61471;SDS011;47337;54.068;12.114;2023-03-01T06:52:21;21.83;;;9.27;;
61471;SDS011;47337;54.068;12.114;2023-03-01T06:54:47;19.35;;;8.23;;
61471;SDS011;47337;54.068;12.114;2023-03-01T06:57:14;15.15;;;8.73;;
61471;SDS011;47337;54.068;12.114;2023-03-01T06:59:40;14.63;;;8.30;;
61471;SDS011;47337;54.068;12.114;2023-03-01T07:02:05;14.05;;;8.35;;
61471;SDS011;47337;54.068;12.114;2023-03-01T07:04:30;16.38;;;8.98;;
61471;SDS011;47337;54.068;12.114;2023-03-01T07:06:56;18.40;;;9.85;;
61471;SDS011;47337;54.068;12.114;2023-03-01T07:09:22;17.17;;;8.68;;
61471;SDS011;47337;54.068;12.114;2023-03-01T07:11:48;20.92;;;10.15;;
61471;SDS011;47337;54.068;12.114;2023-03-01T07:14:14;20.90;;;10.05;;
61471;SDS011;47337;54.068;12.114;2023-03-01T07:16:39;18.10;;;9.07;;
61471;SDS011;47337;54.068;12.114;2023-03-01T07:19:05;17.88;;;9.85;;
61471;SDS011;47337;54.068;12.114;2023-03-01T07:21:31;17.98;;;8.35;;
61471;SDS011;47337;54.068;12.114;2023-03-01T07:23:56;17.55;;;9.48;;
61471;SDS011;47337;54.068;12.114;2023-03-01T07:26:22;16.00;;;8.20;;
61471;SDS011;47337;54.068;12.114;2023-03-01T07:28:47;17.80;;;9.57;;
61471;SDS011;47337;54.068;12.114;2023-03-01T07:31:13;14.15;;;7.80;;
61471;SDS011;47337;54.068;12.114;2023-03-01T07:33:39;18.83;;;9.20;;
61471;SDS011;47337;54.068;12.114;2023-03-01T07:36:05;14.77;;;8.30;;
61471;SDS011;47337;54.068;12.114;2023-03-01T07:38:31;17.38;;;8.75;;
61471;SDS011;47337;54.068;12.114;2023-03-01T07:40:59;21.05;;;11.50;;
61471;SDS011;47337;54.068;12.114;2023-03-01T07:43:27;26.65;;;12.95;;
61471;SDS011;47337;54.068;12.114;2023-03-01T07:45:53;25.88;;;12.02;;
61471;SDS011;47337;54.068;12.114;2023-03-01T07:48:18;34.78;;;14.10;;
61471;SDS011;47337;54.068;12.114;2023-03-01T07:50:44;35.70;;;14.40;;
61471;SDS011;47337;54.068;12.114;2023-03-01T07:53:09;36.95;;;16.27;;
61471;SDS011;47337;54.068;12.114;2023-03-01T07:55:35;38.78;;;16.40;;
61471;SDS011;47337;54.068;12.114;2023-03-01T07:58:03;42.97;;;17.80;;
61471;SDS011;47337;54.068;12.114;2023-03-01T08:00:29;40.85;;;17.15;;
61471;SDS011;47337;54.068;12.114;2023-03-01T08:02:54;44.47;;;17.48;;
61471;SDS011;47337;54.068;12.114;2023-03-01T08:05:23;44.17;;;17.77;;
61471;SDS011;47337;54.068;12.114;2023-03-01T08:07:48;48.75;;;18.38;;
61471;SDS011;47337;54.068;12.114;2023-03-01T08:10:14;45.58;;;18.35;;
61471;SDS011;47337;54.068;12.114;2023-03-01T08:12:39;51.55;;;18.95;;
61471;SDS011;47337;54.068;12.114;2023-03-01T08:15:07;57.15;;;18.52;;
61471;SDS011;47337;54.068;12.114;2023-03-01T08:17:36;69.88;;;18.45;;
61471;SDS011;47337;54.068;12.114;2023-03-01T08:20:01;92.00;;;19.63;;
61471;SDS011;47337;54.068;12.114;2023-03-01T08:22:31;48.88;;;17.10;;
61471;SDS011;47337;54.068;12.114;2023-03-01T08:24:59;45.40;;;18.17;;
61471;SDS011;47337;54.068;12.114;2023-03-01T08:27:25;48.70;;;18.25;;
61471;SDS011;47337;54.068;12.114;2023-03-01T08:29:52;61.28;;;17.80;;
61471;SDS011;47337;54.068;12.114;2023-03-01T08:32:18;38.95;;;16.23;;
61471;SDS011;47337;54.068;12.114;2023-03-01T08:34:46;45.78;;;17.55;;
61471;SDS011;47337;54.068;12.114;2023-03-01T08:37:11;51.05;;;17.30;;
61471;SDS011;47337;54.068;12.114;2023-03-01T08:39:37;54.45;;;16.92;;
61471;SDS011;47337;54.068;12.114;2023-03-01T08:42:04;44.95;;;15.73;;
61471;SDS011;47337;54.068;12.114;2023-03-01T08:44:30;47.65;;;15.77;;
61471;SDS011;47337;54.068;12.114;2023-03-01T08:46:55;36.78;;;15.60;;
61471;SDS011;47337;54.068;12.114;2023-03-01T08:49:22;47.15;;;16.83;;
61471;SDS011;47337;54.068;12.114;2023-03-01T08:51:48;44.25;;;14.63;;
61471;SDS011;47337;54.068;12.114;2023-03-01T08:54:19;64.55;;;15.18;;
61471;SDS011;47337;54.068;12.114;2023-03-01T08:56:45;30.00;;;14.65;;
61471;SDS011;47337;54.068;12.114;2023-03-01T08:59:11;35.97;;;14.52;;
61471;SDS011;47337;54.068;12.114;2023-03-01T09:01:38;32.28;;;13.73;;
61471;SDS011;47337;54.068;12.114;2023-03-01T09:04:05;29.42;;;14.30;;
61471;SDS011;47337;54.068;12.114;2023-03-01T09:06:33;28.80;;;14.45;;
61471;SDS011;47337;54.068;12.114;2023-03-01T09:08:58;27.58;;;14.55;;
61471;SDS011;47337;54.068;12.114;2023-03-01T09:11:24;27.70;;;14.38;;
61471;SDS011;47337;54.068;12.114;2023-03-01T09:13:50;37.22;;;14.57;;
61471;SDS011;47337;54.068;12.114;2023-03-01T09:16:17;27.80;;;14.40;;
61471;SDS011;47337;54.068;12.114;2023-03-01T09:18:51;30.55;;;14.95;;
61471;SDS011;47337;54.068;12.114;2023-03-01T09:21:18;27.95;;;13.73;;
61471;SDS011;47337;54.068;12.114;2023-03-01T09:23:46;27.85;;;14.80;;
61471;SDS011;47337;54.068;12.114;2023-03-01T09:26:14;26.08;;;13.73;;
61471;SDS011;47337;54.068;12.114;2023-03-01T09:28:47;40.53;;;13.73;;
61471;SDS011;47337;54.068;12.114;2023-03-01T09:31:17;31.30;;;14.27;;
61471;SDS011;47337;54.068;12.114;2023-03-01T09:33:46;28.13;;;14.55;;
61471;SDS011;47337;54.068;12.114;2023-03-01T09:36:13;32.22;;;14.25;;
61471;SDS011;47337;54.068;12.114;2023-03-01T09:38:41;31.55;;;15.10;;
61471;SDS011;47337;54.068;12.114;2023-03-01T09:41:10;30.80;;;14.45;;
61471;SDS011;47337;54.068;12.114;2023-03-01T09:43:47;32.88;;;15.68;;
61471;SDS011;47337;54.068;12.114;2023-03-01T09:46:24;32.53;;;15.25;;
61471;SDS011;47337;54.068;12.114;2023-03-01T09:49:00;34.85;;;16.10;;
61471;SDS011;47337;54.068;12.114;2023-03-01T09:51:30;31.85;;;15.15;;
61471;SDS011;47337;54.068;12.114;2023-03-01T09:53:58;32.40;;;14.30;;
61471;SDS011;47337;54.068;12.114;2023-03-01T09:56:42;46.80;;;15.95;;
61471;SDS011;47337;54.068;12.114;2023-03-01T10:07:11;39.15;;;15.63;;
61471;SDS011;47337;54.068;12.114;2023-03-01T10:09:45;36.75;;;15.80;;
61471;SDS011;47337;54.068;12.114;2023-03-01T10:12:14;33.67;;;15.63;;
61471;SDS011;47337;54.068;12.114;2023-03-01T10:20:22;34.58;;;15.57;;
61471;SDS011;47337;54.068;12.114;2023-03-01T10:22:49;37.08;;;15.77;;
61471;SDS011;47337;54.068;12.114;2023-03-01T10:31:56;34.10;;;17.67;;
61471;SDS011;47337;54.068;12.114;2023-03-01T10:36:55;34.20;;;16.00;;
61471;SDS011;47337;54.068;12.114;2023-03-01T10:39:24;38.08;;;16.17;;
61471;SDS011;47337;54.068;12.114;2023-03-01T10:41:55;34.92;;;16.35;;
61471;SDS011;47337;54.068;12.114;2023-03-01T10:44:46;36.60;;;15.85;;
61471;SDS011;47337;54.068;12.114;2023-03-01T10:47:25;32.83;;;15.48;;
61471;SDS011;47337;54.068;12.114;2023-03-01T10:52:18;35.88;;;16.70;;
61471;SDS011;47337;54.068;12.114;2023-03-01T10:54:55;41.42;;;18.13;;
61471;SDS011;47337;54.068;12.114;2023-03-01T10:57:37;36.03;;;16.30;;
61471;SDS011;47337;54.068;12.114;2023-03-01T11:02:49;38.78;;;16.60;;
61471;SDS011;47337;54.068;12.114;2023-03-01T11:05:35;38.70;;;16.48;;
61471;SDS011;47337;54.068;12.114;2023-03-01T11:08:14;38.38;;;17.45;;
61471;SDS011;47337;54.068;12.114;2023-03-01T11:10:40;33.83;;;16.00;;
61471;SDS011;47337;54.068;12.114;2023-03-01T11:13:14;35.80;;;16.73;;
61471;SDS011;47337;54.068;12.114;2023-03-01T11:15:42;36.95;;;16.08;;
61471;SDS011;47337;54.068;12.114;2023-03-01T11:18:22;40.03;;;18.00;;
61471;SDS011;47337;54.068;12.114;2023-03-01T11:20:48;37.00;;;16.15;;
61471;SDS011;47337;54.068;12.114;2023-03-01T11:23:18;36.80;;;16.98;;
61471;SDS011;47337;54.068;12.114;2023-03-01T11:25:59;34.50;;;15.65;;
61471;SDS011;47337;54.068;12.114;2023-03-01T11:28:29;35.03;;;17.10;;
61471;SDS011;47337;54.068;12.114;2023-03-01T11:31:08;30.75;;;15.77;;
61471;SDS011;47337;54.068;12.114;2023-03-01T11:36:32;39.33;;;17.10;;
61471;SDS011;47337;54.068;12.114;2023-03-01T11:41:59;39.72;;;17.42;;
61471;SDS011;47337;54.068;12.114;2023-03-01T11:44:30;37.22;;;17.20;;
61471;SDS011;47337;54.068;12.114;2023-03-01T11:47:18;36.53;;;17.48;;
61471;SDS011;47337;54.068;12.114;2023-03-01T11:57:55;44.15;;;18.77;;
61471;SDS011;47337;54.068;12.114;2023-03-01T12:08:42;50.28;;;18.60;;
61471;SDS011;47337;54.068;12.114;2023-03-01T12:25:27;43.67;;;18.27;;
61471;SDS011;47337;54.068;12.114;2023-03-01T12:28:10;44.20;;;17.77;;
61471;SDS011;47337;54.068;12.114;2023-03-01T12:45:20;45.38;;;16.30;;
61471;SDS011;47337;54.068;12.114;2023-03-01T12:53:25;37.10;;;16.05;;
61471;SDS011;47337;54.068;12.114;2023-03-01T12:56:39;34.15;;;14.68;;
61471;SDS011;47337;54.068;12.114;2023-03-01T12:58:59;35.63;;;15.40;;
61471;SDS011;47337;54.068;12.114;2023-03-01T13:12:00;34.47;;;14.63;;
61471;SDS011;47337;54.068;12.114;2023-03-01T13:16:55;38.20;;;15.15;;
61471;SDS011;47337;54.068;12.114;2023-03-01T13:19:22;39.25;;;17.20;;
61471;SDS011;47337;54.068;12.114;2023-03-01T13:21:50;34.88;;;15.98;;
61471;SDS011;47337;54.068;12.114;2023-03-01T13:24:25;36.30;;;15.95;;
61471;SDS011;47337;54.068;12.114;2023-03-01T13:29:48;37.22;;;16.85;;
61471;SDS011;47337;54.068;12.114;2023-03-01T13:32:23;41.35;;;17.27;;
61471;SDS011;47337;54.068;12.114;2023-03-01T13:34:59;41.05;;;18.70;;
61471;SDS011;47337;54.068;12.114;2023-03-01T13:37:34;38.92;;;17.90;;
61471;SDS011;47337;54.068;12.114;2023-03-01T13:40:04;42.72;;;17.50;;
61471;SDS011;47337;54.068;12.114;2023-03-01T13:42:50;48.53;;;19.45;;
61471;SDS011;47337;54.068;12.114;2023-03-01T13:48:02;45.78;;;19.08;;
61471;SDS011;47337;54.068;12.114;2023-03-01T13:50:46;43.10;;;19.63;;
61471;SDS011;47337;54.068;12.114;2023-03-01T13:53:20;52.08;;;19.27;;
61471;SDS011;47337;54.068;12.114;2023-03-01T13:55:55;48.75;;;19.85;;
61471;SDS011;47337;54.068;12.114;2023-03-01T14:00:57;45.50;;;18.88;;
61471;SDS011;47337;54.068;12.114;2023-03-01T14:03:30;48.47;;;19.08;;
61471;SDS011;47337;54.068;12.114;2023-03-01T14:06:13;50.00;;;19.58;;
61471;SDS011;47337;54.068;12.114;2023-03-01T14:08:42;49.30;;;18.83;;
61471;SDS011;47337;54.068;12.114;2023-03-01T14:19:32;56.95;;;19.58;;
61471;SDS011;47337;54.068;12.114;2023-03-01T14:21:59;49.63;;;19.48;;
61471;SDS011;47337;54.068;12.114;2023-03-01T14:24:33;53.38;;;21.25;;
61471;SDS011;47337;54.068;12.114;2023-03-01T14:27:02;58.60;;;21.77;;
61471;SDS011;47337;54.068;12.114;2023-03-01T14:29:33;69.80;;;20.35;;
61471;SDS011;47337;54.068;12.114;2023-03-01T14:34:47;53.08;;;20.63;;
61471;SDS011;47337;54.068;12.114;2023-03-01T14:37:31;55.17;;;20.25;;
61471;SDS011;47337;54.068;12.114;2023-03-01T14:39:59;61.33;;;20.10;;
61471;SDS011;47337;54.068;12.114;2023-03-01T14:42:30;59.28;;;20.55;;
61471;SDS011;47337;54.068;12.114;2023-03-01T14:45:02;46.97;;;17.27;;
61471;SDS011;47337;54.068;12.114;2023-03-01T14:47:32;47.85;;;18.30;;
61471;SDS011;47337;54.068;12.114;2023-03-01T14:52:37;41.45;;;16.95;;
61471;SDS011;47337;54.068;12.114;2023-03-01T14:55:05;42.53;;;16.58;;
61471;SDS011;47337;54.068;12.114;2023-03-01T14:57:42;51.00;;;16.48;;
61471;SDS011;47337;54.068;12.114;2023-03-01T15:00:10;55.97;;;17.40;;
61471;SDS011;47337;54.068;12.114;2023-03-01T15:02:45;40.97;;;15.40;;
61471;SDS011;47337;54.068;12.114;2023-03-01T15:05:15;45.83;;;15.13;;
61471;SDS011;47337;54.068;12.114;2023-03-01T15:07:48;44.37;;;14.37;;
61471;SDS011;47337;54.068;12.114;2023-03-01T15:10:35;47.65;;;15.45;;
61471;SDS011;47337;54.068;12.114;2023-03-01T15:15:44;43.28;;;14.50;;
61471;SDS011;47337;54.068;12.114;2023-03-01T15:18:21;71.75;;;14.75;;
61471;SDS011;47337;54.068;12.114;2023-03-01T15:20:50;41.97;;;15.10;;
61471;SDS011;47337;54.068;12.114;2023-03-01T15:23:23;56.80;;;13.55;;
61471;SDS011;47337;54.068;12.114;2023-03-01T15:25:52;42.72;;;12.88;;
61471;SDS011;47337;54.068;12.114;2023-03-01T15:28:23;43.72;;;15.40;;
61471;SDS011;47337;54.068;12.114;2023-03-01T15:31:02;35.72;;;13.43;;
61471;SDS011;47337;54.068;12.114;2023-03-01T15:33:29;40.17;;;14.25;;
61471;SDS011;47337;54.068;12.114;2023-03-01T15:36:00;40.63;;;15.30;;
61471;SDS011;47337;54.068;12.114;2023-03-01T15:38:55;39.35;;;13.60;;
61471;SDS011;47337;54.068;12.114;2023-03-01T15:41:30;36.28;;;13.68;;
61471;SDS011;47337;54.068;12.114;2023-03-01T15:44:14;42.60;;;13.35;;
61471;SDS011;47337;54.068;12.114;2023-03-01T15:46:45;49.50;;;13.27;;
61471;SDS011;47337;54.068;12.114;2023-03-01T15:49:46;36.25;;;13.88;;
61471;SDS011;47337;54.068;12.114;2023-03-01T15:52:11;36.75;;;13.77;;
61471;SDS011;47337;54.068;12.114;2023-03-01T15:54:53;32.08;;;12.65;;
61471;SDS011;47337;54.068;12.114;2023-03-01T15:57:20;30.85;;;12.70;;
61471;SDS011;47337;54.068;12.114;2023-03-01T15:59:45;31.23;;;13.68;;
61471;SDS011;47337;54.068;12.114;2023-03-01T16:02:11;35.78;;;13.55;;
61471;SDS011;47337;54.068;12.114;2023-03-01T16:04:39;37.33;;;14.10;;
61471;SDS011;47337;54.068;12.114;2023-03-01T16:07:05;41.25;;;14.15;;
61471;SDS011;47337;54.068;12.114;2023-03-01T16:09:31;40.47;;;15.27;;
61471;SDS011;47337;54.068;12.114;2023-03-01T16:11:57;136.88;;;18.45;;
61471;SDS011;47337;54.068;12.114;2023-03-01T16:14:22;113.07;;;16.83;;
61471;SDS011;47337;54.068;12.114;2023-03-01T16:16:50;50.65;;;14.48;;
61471;SDS011;47337;54.068;12.114;2023-03-01T16:19:15;68.95;;;15.43;;
61471;SDS011;47337;54.068;12.114;2023-03-01T16:21:42;44.47;;;15.18;;
61471;SDS011;47337;54.068;12.114;2023-03-01T16:24:08;48.97;;;14.98;;
61471;SDS011;47337;54.068;12.114;2023-03-01T16:26:36;125.32;;;16.52;;
61471;SDS011;47337;54.068;12.114;2023-03-01T16:29:02;63.05;;;15.88;;
61471;SDS011;47337;54.068;12.114;2023-03-01T16:31:28;112.53;;;18.00;;
61471;SDS011;47337;54.068;12.114;2023-03-01T16:33:54;72.18;;;16.02;;
61471;SDS011;47337;54.068;12.114;2023-03-01T16:36:21;125.75;;;18.38;;
61471;SDS011;47337;54.068;12.114;2023-03-01T16:38:48;71.45;;;17.08;;
61471;SDS011;47337;54.068;12.114;2023-03-01T16:41:16;109.63;;;17.10;;
61471;SDS011;47337;54.068;12.114;2023-03-01T16:43:43;139.02;;;19.23;;
61471;SDS011;47337;54.068;12.114;2023-03-01T16:46:25;175.68;;;21.13;;
61471;SDS011;47337;54.068;12.114;2023-03-01T16:48:53;46.63;;;12.65;;